Time;durP1;ratioP1;P1;durP2;ratioP2;P2;SDS_P1;SDS_P2;PMS_P1;PMS_P2;Temp;Humidity;BMP_temperature;BMP_pressure;BME280_temperature;BME280_humidity;BME280_pressure;Samples;Min_cycle;Max_cycle;Signal;HPM_P1;HPM_P2
2022/12/06 00:01:36;;;;;;;14.73;6.77;;;;;;;3.95;100.00;101191.63;5094029;28;20477;-69
2022/12/06 00:04:04;;;;;;;16.53;6.57;;;;;;;4.00;100.00;101200.56;5092991;28;20957;-69
2022/12/06 00:06:33;;;;;;;19.43;6.90;;;;;;;4.03;100.00;101193.91;5094007;28;20634;-70
2022/12/06 00:09:00;;;;;;;16.60;6.20;;;;;;;4.01;100.00;101199.50;5094889;28;20468;-69
2022/12/06 00:11:29;;;;;;;16.00;6.67;;;;;;;3.96;100.00;101193.25;5093329;28;20863;-69
2022/12/06 00:13:57;;;;;;;18.33;7.97;;;;;;;4.04;100.00;101196.34;5093550;28;20492;-69
2022/12/06 00:16:26;;;;;;;15.57;6.53;;;;;;;4.10;100.00;101199.09;5094377;28;20483;-69
2022/12/06 00:18:53;;;;;;;18.80;6.60;;;;;;;4.08;100.00;101195.88;5093909;28;20571;-69
2022/12/06 00:21:21;;;;;;;14.57;7.37;;;;;;;4.07;100.00;101192.34;5094219;28;20985;-69
2022/12/06 00:23:50;;;;;;;18.00;7.83;;;;;;;4.09;100.00;101197.47;5093128;28;21033;-70
2022/12/06 00:26:18;;;;;;;18.63;8.20;;;;;;;4.09;100.00;101192.94;5094066;28;20443;-69
2022/12/06 00:28:44;;;;;;;26.43;8.13;;;;;;;4.04;100.00;101190.16;5093609;28;20868;-69
2022/12/06 00:31:15;;;;;;;13.70;7.10;;;;;;;3.97;100.00;101192.19;5094445;28;20494;-70
2022/12/06 00:33:43;;;;;;;18.03;7.87;;;;;;;3.95;100.00;101194.31;5093271;28;20540;-69
2022/12/06 00:36:14;;;;;;;17.60;7.73;;;;;;;3.92;100.00;101189.41;5094345;28;20449;-69
2022/12/06 00:38:41;;;;;;;16.63;7.60;;;;;;;3.87;100.00;101186.66;5092926;28;20989;-69
2022/12/06 00:41:10;;;;;;;20.83;8.20;;;;;;;3.91;100.00;101191.28;5093250;28;20514;-70
2022/12/06 00:43:38;;;;;;;18.87;8.37;;;;;;;3.86;100.00;101187.72;5092478;28;20473;-69
2022/12/06 00:46:06;;;;;;;20.23;7.87;;;;;;;3.85;100.00;101191.44;5093221;28;20934;-69
2022/12/06 00:48:33;;;;;;;18.43;8.40;;;;;;;3.84;100.00;101179.91;5094061;28;20446;-70
2022/12/06 00:51:01;;;;;;;15.07;8.37;;;;;;;3.76;100.00;101186.47;5092533;28;21023;-70
2022/12/06 00:53:28;;;;;;;21.17;7.90;;;;;;;3.69;100.00;101185.81;5093753;28;20444;-69
2022/12/06 00:55:55;;;;;;;19.07;8.10;;;;;;;3.71;100.00;101190.91;5093574;28;20472;-70
2022/12/06 00:58:22;;;;;;;15.37;7.40;;;;;;;3.75;100.00;101184.84;5093257;28;20506;-69
2022/12/06 01:00:49;;;;;;;15.30;6.87;;;;;;;3.80;100.00;101184.91;5093454;28;20488;-70
2022/12/06 01:03:16;;;;;;;17.87;6.90;;;;;;;3.85;100.00;101180.72;5093111;28;20825;-70
2022/12/06 01:05:45;;;;;;;19.43;7.17;;;;;;;3.82;100.00;101178.53;5093331;28;20811;-71
2022/12/06 01:08:13;;;;;;;22.20;8.60;;;;;;;3.78;100.00;101175.50;5091755;28;20519;-70
2022/12/06 01:10:41;;;;;;;18.60;8.10;;;;;;;3.77;100.00;101173.91;5093386;28;20483;-69
2022/12/06 01:13:08;;;;;;;18.10;8.53;;;;;;;3.72;100.00;101171.94;5100681;22;20507;-67
2022/12/06 01:15:36;;;;;;;14.80;6.73;;;;;;;3.74;100.00;101175.19;5073262;28;20467;-67
2022/12/06 01:18:03;;;;;;;19.77;8.50;;;;;;;3.68;100.00;101170.78;5071702;28;20969;-67
2022/12/06 01:20:29;;;;;;;17.87;7.00;;;;;;;3.69;100.00;101169.72;5073119;28;20452;-67
2022/12/06 01:22:56;;;;;;;15.27;7.00;;;;;;;3.69;100.00;101166.25;5071887;28;20481;-68
2022/12/06 01:25:24;;;;;;;15.33;7.60;;;;;;;3.73;100.00;101162.84;5073007;28;20445;-68
2022/12/06 01:27:50;;;;;;;23.63;9.07;;;;;;;3.70;100.00;101165.19;5072595;28;20552;-68
2022/12/06 01:30:17;;;;;;;15.90;7.67;;;;;;;3.72;100.00;101173.81;5072539;28;20460;-68
2022/12/06 01:32:44;;;;;;;26.10;8.30;;;;;;;3.70;100.00;101166.00;5072450;28;20564;-69
2022/12/06 01:35:10;;;;;;;17.10;7.03;;;;;;;3.68;100.00;101164.63;5072405;28;22390;-68
2022/12/06 01:37:37;;;;;;;18.83;7.23;;;;;;;3.74;100.00;101164.47;5073337;28;20477;-68
2022/12/06 01:40:04;;;;;;;16.80;7.53;;;;;;;3.80;100.00;101176.06;5071766;28;20481;-68
2022/12/06 01:42:32;;;;;;;17.67;7.70;;;;;;;3.83;100.00;101167.56;5072326;28;20567;-69
2022/12/06 01:44:59;;;;;;;20.90;7.97;;;;;;;3.68;100.00;101165.44;5072801;28;20821;-69
2022/12/06 01:47:28;;;;;;;14.73;7.60;;;;;;;3.73;100.00;101173.56;5072482;28;20967;-68
2022/12/06 01:50:00;;;;;;;20.47;6.80;;;;;;;3.76;100.00;101170.41;5072197;28;20449;-69
2022/12/06 01:52:31;;;;;;;18.07;6.93;;;;;;;3.73;100.00;101154.81;5071880;28;21029;-68
2022/12/06 01:55:00;;;;;;;18.13;6.60;;;;;;;3.71;100.00;101156.09;5072953;28;20500;-69
2022/12/06 01:57:27;;;;;;;17.30;7.57;;;;;;;3.72;100.00;101153.19;5072774;28;20468;-68
2022/12/06 01:59:55;;;;;;;14.23;6.47;;;;;;;3.72;100.00;101155.88;5073002;28;20568;-68
2022/12/06 02:02:22;;;;;;;13.40;6.50;;;;;;;3.64;100.00;101156.25;5072455;28;20472;-68
2022/12/06 02:04:50;;;;;;;15.37;6.60;;;;;;;3.65;100.00;101159.75;5072261;28;21018;-68
2022/12/06 02:07:17;;;;;;;20.10;7.00;;;;;;;3.67;100.00;101158.44;5073168;28;20452;-68
2022/12/06 02:09:46;;;;;;;13.60;6.40;;;;;;;3.67;100.00;101154.94;5056311;28;20552;-69
2022/12/06 02:12:14;;;;;;;17.47;6.80;;;;;;;3.70;100.00;101154.47;5072497;28;20556;-68
2022/12/06 02:14:44;;;;;;;18.83;7.30;;;;;;;3.68;100.00;101143.19;5071784;28;20458;-68
2022/12/06 02:17:32;;;;;;;12.97;6.07;;;;;;;3.72;100.00;101145.16;5072945;28;20889;-68
2022/12/06 02:20:12;;;;;;;14.37;5.33;;;;;;;3.73;100.00;101149.44;5069086;28;20485;-68
2022/12/06 02:23:05;;;;;;;12.10;5.83;;;;;;;3.69;100.00;101139.47;5052828;28;20469;-68
2022/12/06 02:26:07;;;;;;;14.90;6.00;;;;;;;3.71;100.00;101135.47;5072508;28;20463;-68
2022/12/06 02:29:09;;;;;;;12.43;5.13;;;;;;;3.63;100.00;101135.88;5075656;28;20488;-68
2022/12/06 02:31:39;;;;;;;11.17;5.13;;;;;;;3.61;100.00;101129.94;5076059;28;20467;-68
2022/12/06 02:34:12;;;;;;;15.80;5.10;;;;;;;3.63;100.00;101127.84;5075585;28;20559;-68
2022/12/06 02:36:45;;;;;;;17.40;5.97;;;;;;;3.59;100.00;101132.06;5076518;28;20422;-68
2022/12/06 02:39:18;;;;;;;15.50;5.90;;;;;;;3.39;100.00;101129.00;5075430;28;20484;-68
2022/12/06 02:41:50;;;;;;;12.73;5.20;;;;;;;3.45;100.00;101122.69;5076408;28;20476;-68
2022/12/06 02:44:22;;;;;;;13.37;5.60;;;;;;;3.42;100.00;101124.00;5075325;28;20554;-68
2022/12/06 02:46:51;;;;;;;13.87;6.30;;;;;;;3.40;100.00;101125.25;5076319;28;20496;-68
2022/12/06 02:49:19;;;;;;;15.50;6.73;;;;;;;3.46;100.00;101118.97;5074900;28;20449;-68
2022/12/06 02:51:47;;;;;;;15.83;6.43;;;;;;;3.45;100.00;101126.19;5076145;28;20895;-68
2022/12/06 02:54:14;;;;;;;12.27;5.60;;;;;;;3.46;100.00;101124.31;5075102;28;20453;-68
2022/12/06 02:56:41;;;;;;;14.60;5.83;;;;;;;3.48;100.00;101122.22;5074885;28;20463;-68
2022/12/06 02:59:07;;;;;;;14.70;6.30;;;;;;;3.52;100.00;101123.34;5075208;28;20484;-69
2022/12/06 03:01:38;;;;;;;13.50;5.50;;;;;;;3.55;100.00;101125.56;5075898;28;20471;-67
2022/12/06 03:04:30;;;;;;;15.40;5.57;;;;;;;3.54;100.00;101122.06;5075001;28;20540;-69
2022/12/06 03:07:12;;;;;;;13.23;5.40;;;;;;;3.50;100.00;101114.75;5076048;28;20521;-68
2022/12/06 03:09:52;;;;;;;17.30;6.57;;;;;;;3.48;100.00;101116.84;5075325;28;20832;-69
2022/12/06 03:12:29;;;;;;;15.03;5.77;;;;;;;3.38;100.00;101101.41;5075440;28;20563;-68
2022/12/06 03:15:04;;;;;;;11.80;6.00;;;;;;;3.45;100.00;101115.47;5074629;28;20453;-68
2022/12/06 03:17:38;;;;;;;15.07;6.03;;;;;;;3.45;100.00;101109.28;5075803;28;20432;-69
2022/12/06 03:20:12;;;;;;;15.30;6.90;;;;;;;3.45;100.00;101106.59;5074663;28;20568;-69
2022/12/06 03:22:43;;;;;;;12.30;5.10;;;;;;;3.46;100.00;101097.53;5075667;28;20465;-68
2022/12/06 03:25:10;;;;;;;13.70;5.93;;;;;;;3.41;100.00;101098.28;5074597;28;20504;-69
2022/12/06 03:27:39;;;;;;;15.57;6.03;;;;;;;3.36;100.00;101092.81;5075591;28;20481;-69
2022/12/06 03:30:11;;;;;;;12.77;5.90;;;;;;;3.42;100.00;101086.50;5074829;28;20457;-68
2022/12/06 03:32:40;;;;;;;14.50;5.07;;;;;;;3.41;100.00;101100.09;5075471;28;20471;-70
2022/12/06 03:35:11;;;;;;;21.77;6.47;;;;;;;3.37;100.00;101094.44;5073987;28;20828;-69
2022/12/06 03:37:41;;;;;;;11.93;6.47;;;;;;;3.34;100.00;101086.06;5074832;28;20473;-68
2022/12/06 03:40:13;;;;;;;11.50;5.00;;;;;;;3.25;100.00;101091.00;5074366;28;20483;-64
2022/12/06 03:42:40;;;;;;;18.20;6.83;;;;;;;3.23;100.00;101087.75;5075238;28;20472;-66
2022/12/06 03:45:10;;;;;;;16.10;6.00;;;;;;;3.23;100.00;101090.41;5074276;28;20591;-71
2022/12/06 03:47:41;;;;;;;19.10;7.77;;;;;;;3.13;100.00;101096.41;5074897;28;20442;-70
2022/12/06 03:50:16;;;;;;;13.13;5.80;;;;;;;3.10;100.00;101082.66;5074291;28;20827;-69
2022/12/06 03:52:43;;;;;;;12.67;5.87;;;;;;;3.13;100.00;101087.56;5075046;28;20470;-70
2022/12/06 03:55:09;;;;;;;17.23;6.23;;;;;;;3.17;100.00;101078.81;5073556;28;20556;-70
2022/12/06 03:57:36;;;;;;;14.10;6.23;;;;;;;3.18;100.00;101083.09;5075098;28;20870;-70
2022/12/06 04:00:03;;;;;;;14.10;6.00;;;;;;;3.10;100.00;101080.84;5073781;28;20591;-70
2022/12/06 04:02:30;;;;;;;11.07;4.90;;;;;;;3.04;100.00;101074.56;5074766;28;20461;-70
2022/12/06 04:04:56;;;;;;;11.47;5.03;;;;;;;3.09;100.00;101078.38;5073814;28;20489;-71
2022/12/06 04:07:24;;;;;;;15.63;5.10;;;;;;;3.08;100.00;101077.56;5074789;28;20445;-71
2022/12/06 04:10:01;;;;;;;11.87;5.50;;;;;;;3.09;100.00;101076.50;5073656;28;20463;-70
2022/12/06 04:15:12;;;;;;;12.47;5.03;;;;;;;3.14;100.00;101079.28;5072841;28;20523;-70
2022/12/06 04:20:24;;;;;;;16.50;5.03;;;;;;;3.19;100.00;101071.38;5073605;28;20849;-70
2022/12/06 04:23:03;;;;;;;14.17;5.60;;;;;;;3.16;100.00;101069.16;5073735;28;20556;-72
2022/12/06 04:25:30;;;;;;;10.70;5.13;;;;;;;3.16;100.00;101065.69;5074486;28;20421;-70
2022/12/06 04:38:54;;;;;;;14.27;5.23;;;;;;;3.27;100.00;101043.38;5073598;28;20544;-71
2022/12/06 04:44:01;;;;;;;12.77;5.60;;;;;;;3.27;100.00;101030.81;5073580;28;20417;-70
2022/12/06 04:46:28;;;;;;;12.33;5.77;;;;;;;3.26;100.00;101029.19;5072672;28;20479;-70
2022/12/06 04:48:54;;;;;;;13.17;6.20;;;;;;;3.25;100.00;101034.78;5073488;28;20531;-70
2022/12/06 04:51:21;;;;;;;13.87;5.40;;;;;;;3.23;100.00;101023.50;5072559;28;20576;-70
2022/12/06 04:53:48;;;;;;;16.67;6.10;;;;;;;3.23;100.00;101034.19;5073941;28;20451;-70
2022/12/06 04:56:16;;;;;;;12.50;5.40;;;;;;;3.24;100.00;101025.94;5072883;28;20484;-70
2022/12/06 04:58:42;;;;;;;10.93;5.10;;;;;;;3.18;100.00;101023.41;5073026;28;20456;-70
2022/12/06 05:01:09;;;;;;;10.70;4.43;;;;;;;3.19;100.00;101025.88;5073418;28;20481;-70
2022/12/06 05:03:36;;;;;;;12.13;5.00;;;;;;;3.20;100.00;101022.13;5073485;28;20817;-70
2022/12/06 05:06:03;;;;;;;18.63;5.77;;;;;;;3.16;100.00;101028.22;5072571;28;20443;-70
2022/12/06 05:08:30;;;;;;;10.90;4.47;;;;;;;3.19;100.00;101025.88;5072870;28;20438;-70
2022/12/06 05:10:57;;;;;;;12.50;5.20;;;;;;;3.20;100.00;101027.47;5069474;28;20460;-70
2022/12/06 05:13:25;;;;;;;12.93;4.67;;;;;;;3.18;100.00;101026.91;5073316;28;20542;-70
2022/12/06 05:15:53;;;;;;;11.07;3.80;;;;;;;3.10;100.00;101034.50;5073215;28;20465;-70
2022/12/06 05:18:20;;;;;;;14.00;4.23;;;;;;;3.10;100.00;101034.50;5073608;28;20440;-70
2022/12/06 05:20:47;;;;;;;8.83;3.90;;;;;;;3.09;100.00;101033.69;5072244;28;20998;-70
2022/12/06 05:23:14;;;;;;;9.73;3.63;;;;;;;3.01;100.00;101018.84;5073425;28;20551;-70
2022/12/06 05:25:41;;;;;;;16.03;4.03;;;;;;;3.03;100.00;101019.41;5072747;28;20461;-71
2022/12/06 05:28:08;;;;;;;11.80;5.23;;;;;;;3.00;100.00;101021.75;5073452;28;20447;-70
2022/12/06 05:30:36;;;;;;;11.40;4.50;;;;;;;3.07;100.00;101022.44;5072245;28;20453;-70
2022/12/06 05:33:03;;;;;;;12.53;4.10;;;;;;;3.07;100.00;101014.41;5072853;28;20954;-70
2022/12/06 05:35:29;;;;;;;11.20;4.50;;;;;;;3.09;100.00;101014.16;5071892;28;20885;-70
2022/12/06 05:37:56;;;;;;;9.97;4.40;;;;;;;3.09;100.00;101012.28;5073279;28;20480;-70
2022/12/06 05:40:22;;;;;;;14.43;5.57;;;;;;;3.15;100.00;101013.22;5072562;28;20492;-70
2022/12/06 05:42:49;;;;;;;10.97;4.30;;;;;;;3.14;100.00;101007.00;5073108;28;20463;-70
2022/12/06 05:45:16;;;;;;;10.53;3.83;;;;;;;3.12;100.00;101016.34;5071973;28;20511;-70
2022/12/06 05:47:44;;;;;;;11.00;4.13;;;;;;;3.04;100.00;101013.00;5072683;28;20448;-70
2022/12/06 05:50:11;;;;;;;12.27;4.77;;;;;;;2.97;100.00;101008.88;5071406;28;20582;-70
2022/12/06 05:52:37;;;;;;;10.93;3.90;;;;;;;3.02;100.00;101006.28;5072528;28;20493;-71
2022/12/06 05:55:05;;;;;;;16.03;4.30;;;;;;;2.99;100.00;101007.56;5072557;28;20488;-70
2022/12/06 05:57:31;;;;;;;13.43;5.07;;;;;;;3.01;100.00;101016.19;5072099;28;20473;-70
2022/12/06 05:59:58;;;;;;;10.60;3.17;;;;;;;3.04;100.00;101004.16;5072443;28;20477;-71
2022/12/06 06:02:24;;;;;;;11.00;3.53;;;;;;;3.13;100.00;101016.09;5076140;28;20481;-70
2022/12/06 06:04:52;;;;;;;10.77;4.20;;;;;;;3.12;100.00;101011.00;5076574;28;20445;-71
2022/12/06 06:07:19;;;;;;;9.07;3.63;;;;;;;3.10;100.00;101010.41;5075894;28;20468;-70
2022/12/06 06:09:46;;;;;;;11.20;4.10;;;;;;;3.17;100.00;101011.91;5076923;28;20437;-71
2022/12/06 06:12:12;;;;;;;13.47;5.40;;;;;;;3.26;100.00;100997.06;5075493;28;20491;-71
2022/12/06 06:14:39;;;;;;;12.20;4.63;;;;;;;3.27;100.00;101009.38;5076705;28;20568;-71
2022/12/06 06:17:06;;;;;;;11.57;4.80;;;;;;;3.26;100.00;101005.09;5075790;28;20463;-71
2022/12/06 06:19:32;;;;;;;10.30;4.10;;;;;;;3.13;100.00;101008.06;5076532;28;20448;-71
2022/12/06 06:22:00;;;;;;;11.33;4.87;;;;;;;3.17;100.00;101006.53;5075315;28;20468;-71
2022/12/06 06:24:27;;;;;;;11.40;4.70;;;;;;;3.21;100.00;101007.69;5076143;28;20441;-71
2022/12/06 06:26:54;;;;;;;12.43;5.13;;;;;;;3.24;100.00;101004.53;5075423;28;20461;-71
2022/12/06 06:29:20;;;;;;;12.70;4.73;;;;;;;3.24;100.00;101007.22;5076462;28;20441;-71
2022/12/06 06:31:47;;;;;;;15.43;4.83;;;;;;;3.24;100.00;101006.41;5075628;28;20483;-71
2022/12/06 06:34:14;;;;;;;10.73;4.77;;;;;;;3.21;100.00;101018.41;5075935;28;20448;-71
2022/12/06 06:36:40;;;;;;;12.27;4.97;;;;;;;3.12;100.00;101016.34;5075753;28;20488;-71
2022/12/06 06:39:08;;;;;;;10.47;5.10;;;;;;;3.17;100.00;101017.25;5076236;28;20467;-70
2022/12/06 06:41:35;;;;;;;11.50;5.07;;;;;;;3.23;100.00;101018.16;5073719;28;21014;-71
2022/12/06 06:44:02;;;;;;;14.10;4.57;;;;;;;3.18;100.00;101024.22;5076192;28;20441;-71
2022/12/06 06:46:28;;;;;;;12.37;4.30;;;;;;;3.15;100.00;101022.03;5075513;28;20457;-71
2022/12/06 06:48:55;;;;;;;10.50;4.43;;;;;;;3.18;100.00;101024.22;5076045;28;20448;-71
2022/12/06 06:51:22;;;;;;;10.23;4.03;;;;;;;3.17;100.00;101019.13;5073833;28;20532;-70
2022/12/06 06:53:48;;;;;;;9.77;4.03;;;;;;;3.17;100.00;101024.47;5076082;28;20483;-71
2022/12/06 06:56:16;;;;;;;12.57;4.60;;;;;;;3.17;100.00;101024.47;5074189;28;21005;-71
2022/12/06 06:58:43;;;;;;;12.07;3.73;;;;;;;3.23;100.00;101018.16;5075859;28;20815;-70
2022/12/06 07:01:17;;;;;;;10.60;3.83;;;;;;;3.24;100.00;101014.44;5074451;28;20485;-65
2022/12/06 07:03:43;;;;;;;10.77;4.17;;;;;;;3.27;100.00;101014.75;5075638;28;20505;-66
2022/12/06 07:06:11;;;;;;;10.13;4.03;;;;;;;3.20;100.00;101019.44;5075672;28;20452;-71
2022/12/06 07:08:38;;;;;;;11.73;4.53;;;;;;;3.24;100.00;101017.13;5075529;28;20438;-72
2022/12/06 07:11:05;;;;;;;12.30;4.40;;;;;;;3.17;100.00;101014.56;5074494;28;20910;-73
2022/12/06 07:13:33;;;;;;;9.93;3.60;;;;;;;3.21;100.00;101021.06;5088239;22;20497;-69
2022/12/06 07:16:03;;;;;;;7.90;3.33;;;;;;;3.16;100.00;101015.63;5054624;28;20466;-70
2022/12/06 07:18:30;;;;;;;11.20;4.23;;;;;;;3.09;100.00;101020.31;5055724;28;20485;-69
2022/12/06 07:21:02;;;;;;;9.10;3.73;;;;;;;3.12;100.00;101022.53;5054247;28;20505;-69
2022/12/06 07:23:29;;;;;;;10.83;4.13;;;;;;;3.20;100.00;101024.81;5055478;28;20539;-68
2022/12/06 07:26:03;;;;;;;9.40;4.20;;;;;;;3.24;100.00;101025.94;5054727;28;20483;-67
2022/12/06 07:28:30;;;;;;;12.90;4.57;;;;;;;3.29;100.00;101028.72;5055084;28;20822;-65
2022/12/06 07:30:58;;;;;;;12.47;3.90;;;;;;;3.26;100.00;101023.03;5053915;28;20462;-66
2022/12/06 07:33:24;;;;;;;9.73;4.57;;;;;;;3.25;100.00;101035.59;5054714;28;20521;-66
2022/12/06 07:35:52;;;;;;;9.00;4.20;;;;;;;3.26;100.00;101026.50;5054248;28;20497;-66
2022/12/06 07:38:19;;;;;;;8.93;4.33;;;;;;;3.24;100.00;101036.66;5054302;28;20462;-66
2022/12/06 07:40:45;;;;;;;11.77;3.20;;;;;;;3.29;100.00;101025.22;5055136;28;20572;-66
2022/12/06 07:45:57;;;;;;;7.93;3.53;;;;;;;3.23;100.00;101034.19;5054910;28;20937;-66
2022/12/06 07:48:24;;;;;;;11.30;4.60;;;;;;;3.18;100.00;101036.78;5054045;28;20466;-68
2022/12/06 07:50:51;;;;;;;11.30;3.77;;;;;;;3.17;100.00;101037.84;5054545;28;20497;-67
2022/12/06 07:53:18;;;;;;;11.07;4.13;;;;;;;3.15;100.00;101037.28;5053774;28;20883;-68
2022/12/06 07:55:44;;;;;;;11.10;4.60;;;;;;;3.09;100.00;101039.03;5053632;28;20486;-68
2022/12/06 07:58:11;;;;;;;11.43;4.13;;;;;;;3.11;100.00;101030.81;5054156;28;20484;-68
2022/12/06 08:00:40;;;;;;;12.73;3.77;;;;;;;3.06;100.00;101028.84;5054766;28;20482;-68
2022/12/06 08:03:08;;;;;;;10.10;4.30;;;;;;;3.07;100.00;101022.44;5053333;28;21147;-67
2022/12/06 08:05:34;;;;;;;11.40;4.07;;;;;;;3.10;100.00;101023.78;5054422;28;20449;-68
2022/12/06 08:08:01;;;;;;;10.30;3.90;;;;;;;3.03;100.00;101021.28;5053263;28;20479;-67
2022/12/06 08:10:27;;;;;;;12.40;3.83;;;;;;;2.96;100.00;101020.59;5054072;28;20541;-68
2022/12/06 08:12:54;;;;;;;9.67;3.27;;;;;;;2.97;100.00;101024.94;5053102;28;20470;-68
2022/12/06 08:15:21;;;;;;;10.30;3.93;;;;;;;2.96;100.00;101021.41;5054614;28;20442;-68
2022/12/06 08:17:47;;;;;;;9.93;4.10;;;;;;;3.01;100.00;101023.38;5054552;28;20442;-68
2022/12/06 08:20:15;;;;;;;10.80;4.13;;;;;;;3.00;100.00;101021.75;5053677;28;20580;-68
2022/12/06 08:22:42;;;;;;;13.30;5.10;;;;;;;3.11;100.00;101031.59;5054423;28;20461;-68
2022/12/06 08:25:09;;;;;;;9.70;3.10;;;;;;;3.15;100.00;101032.75;5052124;28;20457;-67
2022/12/06 08:27:36;;;;;;;10.90;4.00;;;;;;;3.10;100.00;101031.81;5054397;28;20449;-67
2022/12/06 08:30:03;;;;;;;10.87;3.60;;;;;;;3.13;100.00;101032.16;5053011;28;20458;-67
2022/12/06 08:32:30;;;;;;;11.97;4.30;;;;;;;3.12;100.00;101027.88;5054089;28;20497;-68
2022/12/06 08:34:56;;;;;;;11.17;4.67;;;;;;;3.14;100.00;101036.47;5052239;28;20458;-67
2022/12/06 08:37:24;;;;;;;11.83;3.63;;;;;;;3.16;100.00;101028.22;5053935;28;20531;-67
2022/12/06 08:39:51;;;;;;;12.93;3.53;;;;;;;3.09;100.00;101038.25;5053496;28;20481;-67
2022/12/06 08:42:17;;;;;;;9.17;4.03;;;;;;;3.11;100.00;101036.97;5051808;28;20504;-68
2022/12/06 08:44:44;;;;;;;12.27;3.90;;;;;;;3.10;100.00;101035.34;5053686;28;20931;-68
2022/12/06 08:47:11;;;;;;;11.13;4.67;;;;;;;3.20;100.00;101035.50;5052746;28;21239;-70
2022/12/06 08:49:37;;;;;;;11.53;4.73;;;;;;;3.25;100.00;101037.47;5053921;28;20858;-67
2022/12/06 08:52:04;;;;;;;8.73;3.47;;;;;;;3.25;100.00;101037.47;5052724;28;20545;-70
2022/12/06 08:54:34;;;;;;;9.40;3.77;;;;;;;3.24;100.00;101036.66;5052358;28;20462;-67
2022/12/06 08:57:00;;;;;;;8.07;3.47;;;;;;;3.16;100.00;101029.00;5053768;28;20446;-67
2022/12/06 08:59:27;;;;;;;9.83;3.73;;;;;;;3.14;100.00;101041.00;5052848;28;20501;-67
2022/12/06 09:01:53;;;;;;;10.80;4.23;;;;;;;3.15;100.00;101038.09;5053636;28;20583;-68
2022/12/06 09:04:20;;;;;;;10.70;3.43;;;;;;;3.16;100.00;101042.41;5052544;28;20536;-67
2022/12/06 09:06:47;;;;;;;9.60;3.53;;;;;;;3.22;100.00;101041.44;5053638;28;20446;-67
2022/12/06 09:09:17;;;;;;;11.13;3.83;;;;;;;3.15;100.00;101038.09;5052623;28;21016;-67
2022/12/06 09:11:45;;;;;;;10.50;4.30;;;;;;;3.21;100.00;101034.47;5052515;28;20454;-67
2022/12/06 09:14:15;;;;;;;9.77;4.13;;;;;;;3.18;100.00;101032.25;5051979;28;20514;-67
2022/12/06 09:16:43;;;;;;;12.73;3.83;;;;;;;3.17;100.00;101033.31;5051251;28;20477;-68
2022/12/06 09:19:09;;;;;;;11.60;3.97;;;;;;;3.13;100.00;101028.69;5052061;28;20967;-68
2022/12/06 09:21:38;;;;;;;12.07;3.40;;;;;;;3.12;100.00;101030.53;5052252;28;20508;-68
2022/12/06 09:24:06;;;;;;;9.00;3.60;;;;;;;3.14;100.00;101025.75;5053255;28;20462;-67
2022/12/06 09:26:33;;;;;;;10.60;3.63;;;;;;;3.14;100.00;101028.44;5052146;28;20884;-67
2022/12/06 09:29:01;;;;;;;12.90;4.37;;;;;;;3.22;100.00;101024.56;5051712;28;20504;-67
2022/12/06 09:31:27;;;;;;;11.47;4.90;;;;;;;3.28;100.00;101021.75;5050639;28;20829;-67
2022/12/06 09:33:54;;;;;;;12.87;4.60;;;;;;;3.32;100.00;101021.22;5052222;28;20565;-67
2022/12/06 09:36:23;;;;;;;8.37;3.37;;;;;;;3.29;100.00;101025.22;5052530;28;20979;-67
2022/12/06 09:38:54;;;;;;;8.97;3.47;;;;;;;3.20;100.00;101024.00;5053151;28;20445;-67
2022/12/06 09:41:37;;;;;;;10.73;4.30;;;;;;;3.25;100.00;101019.53;5053025;28;20910;-67
2022/12/06 09:44:20;;;;;;;9.77;3.87;;;;;;;3.27;100.00;101020.09;5052700;28;20466;-67
2022/12/06 09:47:00;;;;;;;11.37;4.53;;;;;;;3.19;100.00;101015.16;5053069;28;20458;-67
2022/12/06 09:49:30;;;;;;;10.43;4.10;;;;;;;3.19;100.00;101012.47;5052712;28;20430;-67
2022/12/06 09:52:17;;;;;;;9.40;3.80;;;;;;;3.15;100.00;101011.34;5052954;28;20426;-68
2022/12/06 09:55:00;;;;;;;13.93;3.90;;;;;;;3.23;100.00;101002.09;5053061;28;20819;-68
2022/12/06 09:57:35;;;;;;;10.40;3.83;;;;;;;3.29;100.00;101001.94;5053072;28;20884;-67
2022/12/06 10:00:07;;;;;;;8.00;3.40;;;;;;;3.32;100.00;101002.50;5052692;28;20422;-68
2022/12/06 10:02:50;;;;;;;9.83;3.83;;;;;;;3.39;100.00;101003.16;5052724;28;20494;-67
2022/12/06 10:05:31;;;;;;;6.73;3.00;;;;;;;3.42;100.00;100994.66;5052643;28;20505;-68
2022/12/06 10:08:13;;;;;;;11.20;4.60;;;;;;;3.38;100.00;100998.88;5052587;28;20947;-67
2022/12/06 10:10:51;;;;;;;13.73;3.93;;;;;;;3.25;100.00;100995.44;5052877;28;20443;-67
2022/12/06 10:13:27;;;;;;;10.90;3.93;;;;;;;3.29;100.00;100993.09;5052431;28;20504;-67
2022/12/06 10:16:03;;;;;;;10.83;3.90;;;;;;;3.27;100.00;100985.28;5052850;28;20436;-67
2022/12/06 10:18:49;;;;;;;9.03;3.60;;;;;;;3.26;100.00;100990.91;5052565;28;20462;-67
2022/12/06 10:21:30;;;;;;;11.00;4.67;;;;;;;3.29;100.00;100990.44;5052720;28;20498;-68
2022/12/06 10:24:06;;;;;;;9.70;4.10;;;;;;;3.28;100.00;100983.47;5052695;28;20469;-67
2022/12/06 10:26:44;;;;;;;9.37;3.80;;;;;;;3.25;100.00;100982.06;5052745;28;20426;-67
2022/12/06 10:29:18;;;;;;;14.67;4.60;;;;;;;3.24;100.00;100982.31;5052818;28;20904;-67
2022/12/06 10:31:55;;;;;;;10.33;3.80;;;;;;;3.22;100.00;100973.69;5052805;28;20445;-67
2022/12/06 10:34:36;;;;;;;11.60;4.50;;;;;;;3.30;100.00;100981.34;5052262;28;20822;-67
2022/12/06 10:37:15;;;;;;;18.33;5.00;;;;;;;3.34;100.00;100981.66;5052718;28;20509;-67
2022/12/06 10:39:49;;;;;;;12.47;4.70;;;;;;;3.24;100.00;100985.00;5052639;28;20461;-68
2022/12/06 10:42:28;;;;;;;9.33;4.00;;;;;;;3.31;100.00;100982.13;5052497;28;20553;-67
2022/12/06 10:45:00;;;;;;;11.37;4.23;;;;;;;3.36;100.00;100975.00;5052260;28;20458;-67
2022/12/06 10:47:36;;;;;;;10.83;3.97;;;;;;;3.31;100.00;100974.91;5053188;28;20422;-67
2022/12/06 10:50:14;;;;;;;12.67;5.30;;;;;;;3.27;100.00;100973.78;5056317;28;20516;-67
2022/12/06 10:52:44;;;;;;;12.10;4.80;;;;;;;3.30;100.00;100975.97;5056173;28;20492;-67
2022/12/06 10:55:21;;;;;;;12.77;5.60;;;;;;;3.31;100.00;100974.91;5055861;28;20469;-67
2022/12/06 10:57:55;;;;;;;10.00;4.20;;;;;;;3.28;100.00;100970.88;5055844;28;20418;-68
2022/12/06 11:00:24;;;;;;;14.73;4.10;;;;;;;3.34;100.00;100968.28;5055735;28;20505;-67
2022/12/06 11:03:01;;;;;;;10.90;4.73;;;;;;;3.39;100.00;100968.34;5055806;28;20493;-67
2022/12/06 11:05:34;;;;;;;11.00;3.90;;;;;;;3.33;100.00;100969.34;5055924;28;20794;-67
2022/12/06 11:08:05;;;;;;;9.73;3.97;;;;;;;3.38;100.00;100964.88;5055591;28;20466;-67
2022/12/06 11:10:34;;;;;;;12.90;4.13;;;;;;;3.42;100.00;100967.88;5055838;28;20430;-68
2022/12/06 11:13:13;;;;;;;12.97;3.93;;;;;;;3.41;100.00;100958.19;5055447;28;20470;-67
2022/12/06 11:15:48;;;;;;;11.33;4.20;;;;;;;3.48;100.00;100962.34;5055836;28;20438;-67
2022/12/06 11:18:17;;;;;;;14.50;3.63;;;;;;;3.52;100.00;100955.44;5055711;28;20418;-67
2022/12/06 11:20:48;;;;;;;10.30;3.83;;;;;;;3.60;100.00;100953.41;5055283;28;20444;-67
2022/12/06 11:23:23;;;;;;;13.73;4.43;;;;;;;3.59;100.00;100947.25;5055532;28;20472;-68
2022/12/06 11:26:01;;;;;;;7.87;3.30;;;;;;;3.56;100.00;100942.38;5055303;28;20976;-67
2022/12/06 11:28:35;;;;;;;11.83;4.10;;;;;;;3.54;100.00;100947.16;5055481;28;20426;-67
2022/12/06 11:31:06;;;;;;;9.33;3.93;;;;;;;3.51;100.00;100945.00;5055487;28;20473;-67
2022/12/06 11:33:35;;;;;;;8.97;3.40;;;;;;;3.40;100.00;100941.31;5055323;28;20893;-67
2022/12/06 11:36:05;;;;;;;9.13;3.77;;;;;;;3.46;100.00;100939.56;5055336;28;20474;-67
2022/12/06 11:38:34;;;;;;;10.20;3.43;;;;;;;3.52;100.00;100939.38;5055315;28;20433;-67
2022/12/06 11:41:01;;;;;;;8.10;3.13;;;;;;;3.54;100.00;100939.13;5055166;28;20446;-67
2022/12/06 11:43:34;;;;;;;8.30;3.03;;;;;;;3.56;100.00;100933.53;5055124;28;20464;-68
2022/12/06 11:46:02;;;;;;;8.87;2.87;;;;;;;3.62;100.00;100930.69;5055181;28;20426;-67
2022/12/06 11:48:33;;;;;;;6.40;2.47;;;;;;;3.68;100.00;100924.34;5054825;28;20473;-67
2022/12/06 11:51:01;;;;;;;10.00;2.67;;;;;;;3.66;100.00;100925.66;5055142;28;20435;-68
2022/12/06 11:53:32;;;;;;;7.90;3.10;;;;;;;3.63;100.00;100926.13;5054944;28;20485;-67